sensor_id;sensor_type;location;lat;lon;timestamp;P1;durP1;ratioP1;P2;durP2;ratioP2
30553;SDS011;17335;50.720;7.452;2022-12-29T00:01:40;2.35;;;1.20;;
30553;SDS011;17335;50.720;7.452;2022-12-29T00:04:06;2.25;;;1.15;;
30553;SDS011;17335;50.720;7.452;2022-12-29T00:06:40;2.03;;;1.23;;
30553;SDS011;17335;50.720;7.452;2022-12-29T00:09:07;3.05;;;1.40;;
30553;SDS011;17335;50.720;7.452;2022-12-29T00:11:34;2.63;;;1.40;;
30553;SDS011;17335;50.720;7.452;2022-12-29T00:14:01;2.50;;;1.20;;
30553;SDS011;17335;50.720;7.452;2022-12-29T00:16:51;2.05;;;1.40;;
30553;SDS011;17335;50.720;7.452;2022-12-29T00:19:17;2.67;;;1.20;;
30553;SDS011;17335;50.720;7.452;2022-12-29T00:22:03;1.95;;;1.17;;
30553;SDS011;17335;50.720;7.452;2022-12-29T00:24:47;2.80;;;1.40;;
30553;SDS011;17335;50.720;7.452;2022-12-29T00:27:26;3.65;;;1.38;;
30553;SDS011;17335;50.720;7.452;2022-12-29T00:32:58;1.92;;;1.20;;
30553;SDS011;17335;50.720;7.452;2022-12-29T00:35:45;2.00;;;1.20;;
30553;SDS011;17335;50.720;7.452;2022-12-29T00:38:18;2.33;;;1.30;;
30553;SDS011;17335;50.720;7.452;2022-12-29T00:41:03;1.65;;;1.15;;
30553;SDS011;17335;50.720;7.452;2022-12-29T00:43:48;1.88;;;1.10;;
30553;SDS011;17335;50.720;7.452;2022-12-29T00:46:33;2.55;;;1.20;;
30553;SDS011;17335;50.720;7.452;2022-12-29T00:49:01;4.30;;;1.60;;
30553;SDS011;17335;50.720;7.452;2022-12-29T00:51:47;2.28;;;1.30;;
30553;SDS011;17335;50.720;7.452;2022-12-29T00:54:14;4.25;;;1.20;;
30553;SDS011;17335;50.720;7.452;2022-12-29T00:56:43;2.30;;;1.38;;
30553;SDS011;17335;50.720;7.452;2022-12-29T00:59:12;3.50;;;1.63;;
30553;SDS011;17335;50.720;7.452;2022-12-29T01:01:39;3.05;;;1.20;;
30553;SDS011;17335;50.720;7.452;2022-12-29T01:04:06;2.10;;;1.13;;
30553;SDS011;17335;50.720;7.452;2022-12-29T01:06:35;2.45;;;1.30;;
30553;SDS011;17335;50.720;7.452;2022-12-29T01:09:02;2.78;;;1.20;;
30553;SDS011;17335;50.720;7.452;2022-12-29T01:11:48;4.15;;;1.30;;
30553;SDS011;17335;50.720;7.452;2022-12-29T01:14:14;3.08;;;1.25;;
30553;SDS011;17335;50.720;7.452;2022-12-29T01:16:43;2.58;;;1.30;;
30553;SDS011;17335;50.720;7.452;2022-12-29T01:19:09;2.47;;;1.20;;
30553;SDS011;17335;50.720;7.452;2022-12-29T01:21:36;3.00;;;1.30;;
30553;SDS011;17335;50.720;7.452;2022-12-29T01:24:02;2.00;;;1.17;;
30553;SDS011;17335;50.720;7.452;2022-12-29T01:26:29;2.25;;;1.23;;
30553;SDS011;17335;50.720;7.452;2022-12-29T01:28:55;4.53;;;1.40;;
30553;SDS011;17335;50.720;7.452;2022-12-29T01:31:22;2.05;;;1.10;;
30553;SDS011;17335;50.720;7.452;2022-12-29T01:33:48;3.08;;;1.02;;
30553;SDS011;17335;50.720;7.452;2022-12-29T01:36:15;1.48;;;0.95;;
30553;SDS011;17335;50.720;7.452;2022-12-29T01:38:44;1.50;;;1.00;;
30553;SDS011;17335;50.720;7.452;2022-12-29T01:41:11;1.85;;;0.90;;
30553;SDS011;17335;50.720;7.452;2022-12-29T01:43:43;1.90;;;0.93;;
30553;SDS011;17335;50.720;7.452;2022-12-29T01:46:36;0.75;;;0.70;;
30553;SDS011;17335;50.720;7.452;2022-12-29T01:49:11;1.95;;;0.75;;
30553;SDS011;17335;50.720;7.452;2022-12-29T01:54:39;2.03;;;1.02;;
30553;SDS011;17335;50.720;7.452;2022-12-29T01:57:10;0.85;;;0.73;;
30553;SDS011;17335;50.720;7.452;2022-12-29T01:59:46;1.53;;;0.87;;
30553;SDS011;17335;50.720;7.452;2022-12-29T02:04:51;1.47;;;0.90;;
30553;SDS011;17335;50.720;7.452;2022-12-29T02:07:26;0.68;;;0.68;;
30553;SDS011;17335;50.720;7.452;2022-12-29T02:09:54;1.02;;;0.80;;
30553;SDS011;17335;50.720;7.452;2022-12-29T02:12:22;0.85;;;0.70;;
30553;SDS011;17335;50.720;7.452;2022-12-29T02:14:51;1.20;;;0.70;;
30553;SDS011;17335;50.720;7.452;2022-12-29T02:31:22;1.08;;;0.70;;
30553;SDS011;17335;50.720;7.452;2022-12-29T02:45:21;1.27;;;0.80;;
30553;SDS011;17335;50.720;7.452;2022-12-29T02:51:06;1.02;;;0.70;;
30553;SDS011;17335;50.720;7.452;2022-12-29T02:53:44;0.85;;;0.75;;
30553;SDS011;17335;50.720;7.452;2022-12-29T02:56:30;1.10;;;0.85;;
30553;SDS011;17335;50.720;7.452;2022-12-29T02:58:56;1.10;;;0.77;;
30553;SDS011;17335;50.720;7.452;2022-12-29T03:04:35;0.85;;;0.70;;
30553;SDS011;17335;50.720;7.452;2022-12-29T03:07:26;2.63;;;0.80;;
30553;SDS011;17335;50.720;7.452;2022-12-29T03:13:11;2.63;;;0.93;;
30553;SDS011;17335;50.720;7.452;2022-12-29T03:16:07;1.17;;;0.90;;
30553;SDS011;17335;50.720;7.452;2022-12-29T03:18:39;1.98;;;1.15;;
30553;SDS011;17335;50.720;7.452;2022-12-29T03:21:18;0.73;;;0.70;;
30553;SDS011;17335;50.720;7.452;2022-12-29T03:24:14;1.20;;;0.73;;
30553;SDS011;17335;50.720;7.452;2022-12-29T03:26:43;1.30;;;0.90;;
30553;SDS011;17335;50.720;7.452;2022-12-29T03:29:13;1.25;;;0.75;;
30553;SDS011;17335;50.720;7.452;2022-12-29T03:31:43;1.67;;;1.10;;
30553;SDS011;17335;50.720;7.452;2022-12-29T03:34:11;1.50;;;0.90;;
30553;SDS011;17335;50.720;7.452;2022-12-29T03:36:53;3.08;;;1.00;;
30553;SDS011;17335;50.720;7.452;2022-12-29T03:39:25;1.58;;;0.90;;
30553;SDS011;17335;50.720;7.452;2022-12-29T03:41:58;1.77;;;0.90;;
30553;SDS011;17335;50.720;7.452;2022-12-29T03:44:37;2.05;;;1.10;;
30553;SDS011;17335;50.720;7.452;2022-12-29T03:47:07;2.08;;;1.08;;
30553;SDS011;17335;50.720;7.452;2022-12-29T03:49:33;2.83;;;1.05;;
30553;SDS011;17335;50.720;7.452;2022-12-29T03:52:00;1.85;;;0.90;;
30553;SDS011;17335;50.720;7.452;2022-12-29T03:54:26;1.73;;;0.93;;
30553;SDS011;17335;50.720;7.452;2022-12-29T03:56:53;1.70;;;0.98;;
30553;SDS011;17335;50.720;7.452;2022-12-29T03:59:19;3.42;;;1.00;;
30553;SDS011;17335;50.720;7.452;2022-12-29T04:01:46;2.47;;;1.10;;
30553;SDS011;17335;50.720;7.452;2022-12-29T04:04:13;3.28;;;1.00;;
30553;SDS011;17335;50.720;7.452;2022-12-29T04:06:39;2.38;;;0.90;;
30553;SDS011;17335;50.720;7.452;2022-12-29T04:09:06;2.17;;;1.05;;
30553;SDS011;17335;50.720;7.452;2022-12-29T04:11:33;2.00;;;1.10;;
30553;SDS011;17335;50.720;7.452;2022-12-29T04:13:59;1.95;;;0.95;;
30553;SDS011;17335;50.720;7.452;2022-12-29T04:16:26;1.65;;;0.88;;
30553;SDS011;17335;50.720;7.452;2022-12-29T04:18:52;3.08;;;0.90;;
30553;SDS011;17335;50.720;7.452;2022-12-29T04:21:19;1.45;;;0.85;;
30553;SDS011;17335;50.720;7.452;2022-12-29T04:23:45;1.83;;;0.95;;
30553;SDS011;17335;50.720;7.452;2022-12-29T04:26:12;1.63;;;1.00;;
30553;SDS011;17335;50.720;7.452;2022-12-29T04:28:39;1.40;;;0.80;;
30553;SDS011;17335;50.720;7.452;2022-12-29T04:31:06;1.55;;;0.88;;
30553;SDS011;17335;50.720;7.452;2022-12-29T04:33:33;1.38;;;0.90;;
30553;SDS011;17335;50.720;7.452;2022-12-29T04:35:59;2.05;;;0.90;;
30553;SDS011;17335;50.720;7.452;2022-12-29T04:38:25;2.17;;;0.80;;
30553;SDS011;17335;50.720;7.452;2022-12-29T04:40:52;2.67;;;0.82;;
30553;SDS011;17335;50.720;7.452;2022-12-29T04:43:18;4.55;;;0.90;;
30553;SDS011;17335;50.720;7.452;2022-12-29T04:45:45;2.13;;;0.90;;
30553;SDS011;17335;50.720;7.452;2022-12-29T04:48:12;1.50;;;0.70;;
30553;SDS011;17335;50.720;7.452;2022-12-29T04:50:40;1.45;;;0.82;;
30553;SDS011;17335;50.720;7.452;2022-12-29T04:53:07;2.85;;;0.82;;
30553;SDS011;17335;50.720;7.452;2022-12-29T04:55:34;2.00;;;1.00;;
30553;SDS011;17335;50.720;7.452;2022-12-29T04:58:00;1.55;;;0.85;;
30553;SDS011;17335;50.720;7.452;2022-12-29T05:00:27;2.22;;;1.00;;
30553;SDS011;17335;50.720;7.452;2022-12-29T05:02:53;0.85;;;0.70;;
30553;SDS011;17335;50.720;7.452;2022-12-29T05:05:23;1.10;;;0.80;;
30553;SDS011;17335;50.720;7.452;2022-12-29T05:07:49;2.28;;;0.82;;
30553;SDS011;17335;50.720;7.452;2022-12-29T05:10:16;1.13;;;0.82;;
30553;SDS011;17335;50.720;7.452;2022-12-29T05:12:43;1.27;;;0.80;;
30553;SDS011;17335;50.720;7.452;2022-12-29T05:15:10;1.27;;;0.75;;
30553;SDS011;17335;50.720;7.452;2022-12-29T05:17:38;1.67;;;0.80;;
30553;SDS011;17335;50.720;7.452;2022-12-29T05:20:05;2.25;;;0.90;;
30553;SDS011;17335;50.720;7.452;2022-12-29T05:22:32;1.35;;;0.75;;
30553;SDS011;17335;50.720;7.452;2022-12-29T05:24:59;1.73;;;0.80;;
30553;SDS011;17335;50.720;7.452;2022-12-29T05:27:26;1.48;;;0.90;;
30553;SDS011;17335;50.720;7.452;2022-12-29T05:29:52;1.20;;;0.93;;
30553;SDS011;17335;50.720;7.452;2022-12-29T05:32:18;1.05;;;0.80;;
30553;SDS011;17335;50.720;7.452;2022-12-29T05:34:45;1.63;;;0.98;;
30553;SDS011;17335;50.720;7.452;2022-12-29T05:37:11;1.20;;;0.80;;
30553;SDS011;17335;50.720;7.452;2022-12-29T05:39:38;4.65;;;0.90;;
30553;SDS011;17335;50.720;7.452;2022-12-29T05:42:05;2.03;;;0.90;;
30553;SDS011;17335;50.720;7.452;2022-12-29T05:44:31;2.97;;;1.30;;
30553;SDS011;17335;50.720;7.452;2022-12-29T05:46:57;1.05;;;0.80;;
30553;SDS011;17335;50.720;7.452;2022-12-29T05:49:24;1.60;;;0.93;;
30553;SDS011;17335;50.720;7.452;2022-12-29T05:51:50;1.95;;;0.98;;
30553;SDS011;17335;50.720;7.452;2022-12-29T05:54:18;1.50;;;1.00;;
30553;SDS011;17335;50.720;7.452;2022-12-29T05:56:45;3.05;;;1.10;;
30553;SDS011;17335;50.720;7.452;2022-12-29T05:59:11;2.17;;;1.17;;
30553;SDS011;17335;50.720;7.452;2022-12-29T06:01:37;1.95;;;1.23;;
30553;SDS011;17335;50.720;7.452;2022-12-29T06:04:04;4.20;;;1.63;;
30553;SDS011;17335;50.720;7.452;2022-12-29T06:06:30;1.73;;;1.10;;
30553;SDS011;17335;50.720;7.452;2022-12-29T06:08:58;2.78;;;1.10;;
30553;SDS011;17335;50.720;7.452;2022-12-29T06:11:24;1.70;;;1.02;;
30553;SDS011;17335;50.720;7.452;2022-12-29T06:13:51;1.40;;;1.00;;
30553;SDS011;17335;50.720;7.452;2022-12-29T06:16:18;1.58;;;1.13;;
30553;SDS011;17335;50.720;7.452;2022-12-29T06:18:54;2.08;;;1.08;;
30553;SDS011;17335;50.720;7.452;2022-12-29T06:21:26;3.83;;;1.48;;
30553;SDS011;17335;50.720;7.452;2022-12-29T06:23:53;2.50;;;1.10;;
30553;SDS011;17335;50.720;7.452;2022-12-29T06:26:19;2.70;;;1.17;;
30553;SDS011;17335;50.720;7.452;2022-12-29T06:28:46;4.22;;;1.67;;
30553;SDS011;17335;50.720;7.452;2022-12-29T06:31:12;4.50;;;1.83;;
30553;SDS011;17335;50.720;7.452;2022-12-29T06:33:39;4.18;;;1.20;;
30553;SDS011;17335;50.720;7.452;2022-12-29T06:36:05;1.88;;;1.10;;
30553;SDS011;17335;50.720;7.452;2022-12-29T06:38:32;2.78;;;1.30;;
30553;SDS011;17335;50.720;7.452;2022-12-29T06:40:58;2.35;;;1.25;;
30553;SDS011;17335;50.720;7.452;2022-12-29T06:43:25;5.82;;;1.40;;
30553;SDS011;17335;50.720;7.452;2022-12-29T06:45:51;4.00;;;1.30;;
30553;SDS011;17335;50.720;7.452;2022-12-29T06:48:18;3.33;;;1.35;;
30553;SDS011;17335;50.720;7.452;2022-12-29T06:50:44;2.80;;;1.23;;
30553;SDS011;17335;50.720;7.452;2022-12-29T06:53:10;2.58;;;1.20;;
30553;SDS011;17335;50.720;7.452;2022-12-29T06:55:37;3.03;;;1.38;;
30553;SDS011;17335;50.720;7.452;2022-12-29T06:58:04;2.42;;;1.40;;
30553;SDS011;17335;50.720;7.452;2022-12-29T07:00:30;3.50;;;1.48;;
30553;SDS011;17335;50.720;7.452;2022-12-29T07:02:56;3.75;;;1.10;;
30553;SDS011;17335;50.720;7.452;2022-12-29T07:05:24;4.63;;;1.52;;
30553;SDS011;17335;50.720;7.452;2022-12-29T07:07:54;2.78;;;1.30;;
30553;SDS011;17335;50.720;7.452;2022-12-29T07:10:21;5.45;;;2.10;;
30553;SDS011;17335;50.720;7.452;2022-12-29T07:12:47;2.83;;;1.30;;
30553;SDS011;17335;50.720;7.452;2022-12-29T07:15:14;3.67;;;1.27;;
30553;SDS011;17335;50.720;7.452;2022-12-29T07:17:40;4.95;;;2.05;;
30553;SDS011;17335;50.720;7.452;2022-12-29T07:20:07;5.13;;;1.95;;
30553;SDS011;17335;50.720;7.452;2022-12-29T07:22:34;1.70;;;1.10;;
30553;SDS011;17335;50.720;7.452;2022-12-29T07:25:01;2.97;;;1.67;;
30553;SDS011;17335;50.720;7.452;2022-12-29T07:27:28;2.95;;;1.25;;
30553;SDS011;17335;50.720;7.452;2022-12-29T07:29:54;5.68;;;2.95;;
30553;SDS011;17335;50.720;7.452;2022-12-29T07:32:21;7.82;;;3.90;;
30553;SDS011;17335;50.720;7.452;2022-12-29T07:34:47;9.82;;;5.35;;
30553;SDS011;17335;50.720;7.452;2022-12-29T07:37:14;3.15;;;1.80;;
30553;SDS011;17335;50.720;7.452;2022-12-29T07:39:42;2.35;;;1.10;;
30553;SDS011;17335;50.720;7.452;2022-12-29T07:42:09;1.27;;;0.80;;
30553;SDS011;17335;50.720;7.452;2022-12-29T07:44:35;1.35;;;0.85;;
30553;SDS011;17335;50.720;7.452;2022-12-29T07:47:02;1.23;;;0.82;;
30553;SDS011;17335;50.720;7.452;2022-12-29T07:49:29;1.10;;;0.70;;
30553;SDS011;17335;50.720;7.452;2022-12-29T07:51:55;0.95;;;0.55;;
30553;SDS011;17335;50.720;7.452;2022-12-29T07:54:22;1.52;;;0.82;;
30553;SDS011;17335;50.720;7.452;2022-12-29T07:56:49;1.15;;;0.70;;
30553;SDS011;17335;50.720;7.452;2022-12-29T07:59:16;1.20;;;0.70;;
30553;SDS011;17335;50.720;7.452;2022-12-29T08:01:43;0.90;;;0.57;;
30553;SDS011;17335;50.720;7.452;2022-12-29T08:04:10;0.90;;;0.50;;
30553;SDS011;17335;50.720;7.452;2022-12-29T08:06:36;0.55;;;0.50;;
30553;SDS011;17335;50.720;7.452;2022-12-29T08:09:06;1.80;;;0.70;;
30553;SDS011;17335;50.720;7.452;2022-12-29T08:11:44;2.50;;;0.70;;
30553;SDS011;17335;50.720;7.452;2022-12-29T08:14:11;1.05;;;0.60;;
30553;SDS011;17335;50.720;7.452;2022-12-29T08:16:37;3.53;;;0.70;;
30553;SDS011;17335;50.720;7.452;2022-12-29T08:19:04;2.88;;;0.68;;
30553;SDS011;17335;50.720;7.452;2022-12-29T08:21:33;2.20;;;0.80;;
30553;SDS011;17335;50.720;7.452;2022-12-29T08:24:00;1.95;;;0.60;;
30553;SDS011;17335;50.720;7.452;2022-12-29T08:26:26;0.90;;;0.60;;
30553;SDS011;17335;50.720;7.452;2022-12-29T08:28:53;3.15;;;0.73;;
30553;SDS011;17335;50.720;7.452;2022-12-29T08:31:20;1.30;;;0.50;;
30553;SDS011;17335;50.720;7.452;2022-12-29T08:33:48;2.50;;;0.77;;
30553;SDS011;17335;50.720;7.452;2022-12-29T08:36:14;3.13;;;1.15;;
30553;SDS011;17335;50.720;7.452;2022-12-29T08:38:41;1.67;;;0.55;;
30553;SDS011;17335;50.720;7.452;2022-12-29T08:41:07;0.95;;;0.70;;
30553;SDS011;17335;50.720;7.452;2022-12-29T08:43:34;1.20;;;0.70;;
30553;SDS011;17335;50.720;7.452;2022-12-29T08:46:00;1.00;;;0.80;;
30553;SDS011;17335;50.720;7.452;2022-12-29T08:48:33;3.50;;;0.63;;
30553;SDS011;17335;50.720;7.452;2022-12-29T08:51:00;3.63;;;1.00;;
30553;SDS011;17335;50.720;7.452;2022-12-29T08:53:26;3.70;;;0.60;;
30553;SDS011;17335;50.720;7.452;2022-12-29T08:55:57;1.45;;;0.85;;
30553;SDS011;17335;50.720;7.452;2022-12-29T08:58:30;2.58;;;0.70;;
30553;SDS011;17335;50.720;7.452;2022-12-29T09:01:02;1.15;;;0.70;;
30553;SDS011;17335;50.720;7.452;2022-12-29T09:03:29;0.95;;;0.65;;
30553;SDS011;17335;50.720;7.452;2022-12-29T09:06:16;2.33;;;0.40;;
30553;SDS011;17335;50.720;7.452;2022-12-29T09:08:44;1.25;;;0.68;;
30553;SDS011;17335;50.720;7.452;2022-12-29T09:13:39;2.67;;;0.90;;
30553;SDS011;17335;50.720;7.452;2022-12-29T09:16:06;2.42;;;0.70;;
30553;SDS011;17335;50.720;7.452;2022-12-29T09:18:33;3.45;;;0.80;;
30553;SDS011;17335;50.720;7.452;2022-12-29T09:21:03;1.92;;;0.70;;
30553;SDS011;17335;50.720;7.452;2022-12-29T09:23:31;1.85;;;0.80;;
30553;SDS011;17335;50.720;7.452;2022-12-29T09:25:58;3.53;;;0.90;;
30553;SDS011;17335;50.720;7.452;2022-12-29T09:28:27;3.53;;;0.68;;
30553;SDS011;17335;50.720;7.452;2022-12-29T09:30:57;4.07;;;0.77;;
30553;SDS011;17335;50.720;7.452;2022-12-29T09:33:25;5.32;;;1.02;;
30553;SDS011;17335;50.720;7.452;2022-12-29T09:35:56;2.25;;;1.08;;
30553;SDS011;17335;50.720;7.452;2022-12-29T09:38:24;2.53;;;0.88;;
30553;SDS011;17335;50.720;7.452;2022-12-29T09:40:53;2.40;;;1.02;;
30553;SDS011;17335;50.720;7.452;2022-12-29T09:52:40;6.80;;;0.68;;
30553;SDS011;17335;50.720;7.452;2022-12-29T09:54:53;4.60;;;1.00;;
30553;SDS011;17335;50.720;7.452;2022-12-29T10:00:03;2.67;;;0.93;;
30553;SDS011;17335;50.720;7.452;2022-12-29T10:02:42;1.27;;;0.70;;
30553;SDS011;17335;50.720;7.452;2022-12-29T10:08:12;2.55;;;0.90;;
30553;SDS011;17335;50.720;7.452;2022-12-29T10:10:59;3.58;;;0.90;;
30553;SDS011;17335;50.720;7.452;2022-12-29T10:14:01;3.40;;;0.80;;
30553;SDS011;17335;50.720;7.452;2022-12-29T10:16:51;4.65;;;0.80;;
30553;SDS011;17335;50.720;7.452;2022-12-29T10:19:42;2.33;;;0.73;;
30553;SDS011;17335;50.720;7.452;2022-12-29T10:25:12;3.20;;;0.77;;
30553;SDS011;17335;50.720;7.452;2022-12-29T10:27:46;3.70;;;1.00;;
30553;SDS011;17335;50.720;7.452;2022-12-29T10:30:15;2.92;;;0.82;;
30553;SDS011;17335;50.720;7.452;2022-12-29T10:32:46;4.40;;;0.85;;
30553;SDS011;17335;50.720;7.452;2022-12-29T10:35:35;2.38;;;0.75;;
30553;SDS011;17335;50.720;7.452;2022-12-29T10:38:14;4.45;;;0.80;;
30553;SDS011;17335;50.720;7.452;2022-12-29T10:40:51;3.75;;;0.90;;
30553;SDS011;17335;50.720;7.452;2022-12-29T10:43:29;5.78;;;1.27;;
30553;SDS011;17335;50.720;7.452;2022-12-29T10:46:11;4.38;;;0.88;;
30553;SDS011;17335;50.720;7.452;2022-12-29T10:48:44;2.17;;;0.90;;
30553;SDS011;17335;50.720;7.452;2022-12-29T10:51:22;5.30;;;0.90;;
30553;SDS011;17335;50.720;7.452;2022-12-29T10:53:53;1.63;;;0.80;;
30553;SDS011;17335;50.720;7.452;2022-12-29T10:56:35;3.08;;;0.98;;
30553;SDS011;17335;50.720;7.452;2022-12-29T10:59:31;5.53;;;0.80;;
30553;SDS011;17335;50.720;7.452;2022-12-29T11:07:09;1.60;;;0.80;;
30553;SDS011;17335;50.720;7.452;2022-12-29T11:09:41;5.88;;;1.23;;
30553;SDS011;17335;50.720;7.452;2022-12-29T11:12:26;3.42;;;1.00;;
30553;SDS011;17335;50.720;7.452;2022-12-29T11:15:30;6.93;;;1.20;;
30553;SDS011;17335;50.720;7.452;2022-12-29T11:17:56;5.38;;;0.90;;
30553;SDS011;17335;50.720;7.452;2022-12-29T11:22:53;5.80;;;1.00;;
30553;SDS011;17335;50.720;7.452;2022-12-29T11:25:20;8.32;;;1.55;;
30553;SDS011;17335;50.720;7.452;2022-12-29T11:27:56;4.32;;;0.80;;
30553;SDS011;17335;50.720;7.452;2022-12-29T11:30:24;2.03;;;0.68;;
30553;SDS011;17335;50.720;7.452;2022-12-29T11:32:53;7.47;;;1.15;;
30553;SDS011;17335;50.720;7.452;2022-12-29T11:35:30;3.78;;;1.48;;
30553;SDS011;17335;50.720;7.452;2022-12-29T11:38:04;2.60;;;0.82;;
30553;SDS011;17335;50.720;7.452;2022-12-29T22:41:09;9.60;;;1.52;;
30553;SDS011;17335;50.720;7.452;2022-12-29T22:43:42;9.85;;;1.55;;
30553;SDS011;17335;50.720;7.452;2022-12-29T22:46:09;5.85;;;1.38;;
30553;SDS011;17335;50.720;7.452;2022-12-29T22:48:37;7.22;;;1.30;;
30553;SDS011;17335;50.720;7.452;2022-12-29T22:51:04;14.32;;;1.92;;
30553;SDS011;17335;50.720;7.452;2022-12-29T22:53:31;4.28;;;1.27;;
30553;SDS011;17335;50.720;7.452;2022-12-29T22:56:01;6.15;;;1.52;;
30553;SDS011;17335;50.720;7.452;2022-12-29T22:58:28;7.20;;;1.90;;
30553;SDS011;17335;50.720;7.452;2022-12-29T23:00:55;11.35;;;1.55;;
30553;SDS011;17335;50.720;7.452;2022-12-29T23:03:21;6.25;;;1.10;;
30553;SDS011;17335;50.720;7.452;2022-12-29T23:05:58;11.00;;;1.50;;
30553;SDS011;17335;50.720;7.452;2022-12-29T23:08:26;13.75;;;2.53;;
30553;SDS011;17335;50.720;7.452;2022-12-29T23:10:56;7.18;;;2.15;;
30553;SDS011;17335;50.720;7.452;2022-12-29T23:13:23;9.30;;;1.90;;
30553;SDS011;17335;50.720;7.452;2022-12-29T23:15:49;5.43;;;1.30;;
30553;SDS011;17335;50.720;7.452;2022-12-29T23:18:16;11.05;;;1.63;;
30553;SDS011;17335;50.720;7.452;2022-12-29T23:20:43;11.30;;;1.55;;
30553;SDS011;17335;50.720;7.452;2022-12-29T23:23:13;3.70;;;1.27;;
30553;SDS011;17335;50.720;7.452;2022-12-29T23:26:14;6.70;;;1.48;;
30553;SDS011;17335;50.720;7.452;2022-12-29T23:28:41;5.22;;;1.73;;
30553;SDS011;17335;50.720;7.452;2022-12-29T23:31:08;8.90;;;1.30;;
30553;SDS011;17335;50.720;7.452;2022-12-29T23:33:35;10.15;;;2.08;;
30553;SDS011;17335;50.720;7.452;2022-12-29T23:36:01;10.43;;;1.58;;
30553;SDS011;17335;50.720;7.452;2022-12-29T23:38:28;6.00;;;1.33;;
30553;SDS011;17335;50.720;7.452;2022-12-29T23:40:54;7.13;;;1.55;;
30553;SDS011;17335;50.720;7.452;2022-12-29T23:43:21;10.82;;;1.85;;
30553;SDS011;17335;50.720;7.452;2022-12-29T23:45:48;11.70;;;1.65;;
30553;SDS011;17335;50.720;7.452;2022-12-29T23:48:16;6.65;;;1.77;;
30553;SDS011;17335;50.720;7.452;2022-12-29T23:50:44;11.90;;;2.05;;
30553;SDS011;17335;50.720;7.452;2022-12-29T23:53:11;10.02;;;1.65;;
30553;SDS011;17335;50.720;7.452;2022-12-29T23:55:39;12.35;;;1.63;;
30553;SDS011;17335;50.720;7.452;2022-12-29T23:58:08;6.18;;;1.67;;
